Time;durP1;ratioP1;P1;durP2;ratioP2;P2;SDS_P1;SDS_P2;PMS_P1;PMS_P2;Temp;Humidity;BMP_temperature;BMP_pressure;BME280_temperature;BME280_humidity;BME280_pressure;Samples;Min_cycle;Max_cycle;Signal;HPM_P1;HPM_P2
2024/02/08 00:01:46;;;;;;;3.00;1.80;;;9.60;98.00;;;;;;4992288;28;20880;-70
2024/02/08 00:04:15;;;;;;;3.40;2.20;;;9.50;98.00;;;;;;4991005;28;20456;-70
2024/02/08 00:06:42;;;;;;;3.17;1.60;;;9.50;98.00;;;;;;4992119;28;20461;-70
2024/02/08 00:09:09;;;;;;;2.30;1.77;;;9.60;98.00;;;;;;4990923;28;20872;-70
2024/02/08 00:11:44;;;;;;;2.77;1.80;;;9.60;98.00;;;;;;4991943;28;20464;-70
2024/02/08 00:14:11;;;;;;;3.50;1.80;;;9.60;98.00;;;;;;4992114;28;20578;-70
2024/02/08 00:16:38;;;;;;;1.80;1.70;;;9.60;98.00;;;;;;4991913;28;20444;-70
2024/02/08 00:19:05;;;;;;;3.23;2.00;;;9.50;98.00;;;;;;4991895;28;20448;-70
2024/02/08 00:21:35;;;;;;;2.73;1.60;;;9.60;98.00;;;;;;4991681;28;20460;-70
2024/02/08 00:24:02;;;;;;;3.40;1.70;;;9.60;98.00;;;;;;4991887;28;20486;-70
2024/02/08 00:26:29;;;;;;;3.93;2.00;;;9.60;98.00;;;;;;4991845;28;20825;-70
2024/02/08 00:28:56;;;;;;;2.70;1.80;;;9.60;98.00;;;;;;4991750;28;20464;-70
2024/02/08 00:31:25;;;;;;;3.23;2.10;;;9.60;98.00;;;;;;4991973;28;20865;-70
2024/02/08 00:33:52;;;;;;;1.97;1.50;;;9.60;98.00;;;;;;4991697;28;20568;-70
2024/02/08 00:36:18;;;;;;;2.67;1.60;;;9.70;98.00;;;;;;4990716;28;20460;-70
2024/02/08 00:38:47;;;;;;;3.63;1.80;;;9.70;98.00;;;;;;4991692;28;20483;-69
2024/02/08 00:41:14;;;;;;;2.50;1.60;;;9.80;98.00;;;;;;4990372;28;20460;-70
2024/02/08 00:43:41;;;;;;;3.33;1.80;;;9.80;98.00;;;;;;4991698;28;20865;-70
2024/02/08 00:46:08;;;;;;;2.00;1.73;;;9.80;98.00;;;;;;4990304;28;20452;-70
2024/02/08 00:48:36;;;;;;;1.73;1.40;;;9.80;98.00;;;;;;4991636;28;20456;-70
2024/02/08 00:51:04;;;;;;;2.23;1.53;;;9.80;98.00;;;;;;4991527;28;20869;-70
2024/02/08 00:53:31;;;;;;;1.80;1.63;;;9.90;98.00;;;;;;4991469;28;20479;-70
2024/02/08 00:56:00;;;;;;;2.10;1.60;;;9.90;98.00;;;;;;4991357;28;20956;-70
2024/02/08 00:58:27;;;;;;;2.67;1.67;;;9.90;98.00;;;;;;4991331;28;20498;-70
2024/02/08 01:00:54;;;;;;;3.03;1.70;;;9.90;98.00;;;;;;4991568;28;20456;-70
2024/02/08 01:03:23;;;;;;;2.10;1.63;;;9.90;98.00;;;;;;4991584;28;20972;-70
2024/02/08 01:05:52;;;;;;;2.10;1.50;;;9.90;98.00;;;;;;4991709;28;20483;-70
2024/02/08 01:08:22;;;;;;;2.03;1.50;;;10.00;98.00;;;;;;4991559;28;20576;-70
2024/02/08 01:10:49;;;;;;;2.40;1.70;;;10.00;98.00;;;;;;4991409;28;20472;-70
2024/02/08 01:13:18;;;;;;;1.80;1.47;;;10.00;98.00;;;;;;4991603;28;20453;-70
2024/02/08 01:15:46;;;;;;;2.70;1.60;;;9.90;98.00;;;;;;4992498;28;20511;-70
2024/02/08 01:18:14;;;;;;;2.23;1.60;;;9.90;98.00;;;;;;4991602;28;20833;-70
2024/02/08 01:20:42;;;;;;;1.83;1.40;;;10.00;98.00;;;;;;4992462;28;20463;-70
2024/02/08 01:23:09;;;;;;;1.97;1.60;;;10.00;98.00;;;;;;4990279;28;20462;-70
2024/02/08 01:25:36;;;;;;;2.03;1.37;;;10.00;98.00;;;;;;4990170;28;20522;-70
2024/02/08 01:28:06;;;;;;;2.30;1.60;;;10.00;98.00;;;;;;4991406;28;20457;-69
2024/02/08 01:30:38;;;;;;;1.53;1.43;;;10.00;98.00;;;;;;4990239;28;20870;-70
2024/02/08 01:33:06;;;;;;;1.50;1.30;;;10.00;98.00;;;;;;4991806;28;20452;-69
2024/02/08 01:35:33;;;;;;;1.87;1.50;;;9.90;98.00;;;;;;4994847;28;20493;-70
2024/02/08 01:38:00;;;;;;;2.30;1.53;;;10.00;98.00;;;;;;4993728;28;20818;-69
2024/02/08 01:40:27;;;;;;;1.47;1.20;;;10.10;98.00;;;;;;4994808;28;20448;-70
2024/02/08 01:42:57;;;;;;;1.50;1.30;;;10.10;98.00;;;;;;4994880;28;20672;-70
2024/02/08 01:45:33;;;;;;;2.10;1.40;;;10.10;98.00;;;;;;4994584;28;20511;-70
2024/02/08 01:48:03;;;;;;;1.40;1.27;;;10.00;98.00;;;;;;4994832;28;20618;-70
2024/02/08 01:50:32;;;;;;;1.70;1.40;;;10.00;98.00;;;;;;4994667;28;20449;-70
2024/02/08 01:53:00;;;;;;;1.50;1.20;;;10.00;98.00;;;;;;4994792;28;20479;-70
2024/02/08 01:55:33;;;;;;;1.83;1.20;;;10.10;98.00;;;;;;4994398;28;20485;-70
2024/02/08 01:58:07;;;;;;;2.10;1.30;;;10.00;98.00;;;;;;4994602;28;20453;-70
2024/02/08 02:00:36;;;;;;;1.50;1.30;;;10.10;98.00;;;;;;4994340;28;20458;-70
2024/02/08 02:03:09;;;;;;;1.90;1.30;;;10.10;98.00;;;;;;4994646;28;20482;-70
2024/02/08 02:05:41;;;;;;;1.30;1.20;;;10.10;98.00;;;;;;4994421;28;20462;-70
2024/02/08 02:08:09;;;;;;;1.73;1.37;;;10.20;98.00;;;;;;4994442;28;20955;-70
2024/02/08 02:10:36;;;;;;;1.50;1.20;;;10.20;98.00;;;;;;4994436;28;20453;-70
2024/02/08 02:13:08;;;;;;;1.53;1.43;;;10.20;98.00;;;;;;4994649;28;20448;-69
2024/02/08 02:15:37;;;;;;;1.60;1.30;;;10.20;98.00;;;;;;4994179;28;20484;-69
2024/02/08 02:18:09;;;;;;;1.57;1.30;;;10.20;98.00;;;;;;4994237;28;20466;-70
2024/02/08 02:20:36;;;;;;;1.30;1.20;;;10.20;98.00;;;;;;4994075;28;20452;-70
2024/02/08 02:23:09;;;;;;;1.20;1.10;;;10.20;98.00;;;;;;4994240;28;20456;-70
2024/02/08 02:25:38;;;;;;;1.83;1.27;;;10.20;98.00;;;;;;4993946;28;20549;-70
2024/02/08 02:28:08;;;;;;;1.30;1.20;;;10.20;98.00;;;;;;4994031;28;20494;-70
2024/02/08 02:30:36;;;;;;;1.40;1.20;;;10.30;98.00;;;;;;4976956;28;20514;-69
2024/02/08 02:33:04;;;;;;;1.50;1.40;;;10.30;98.00;;;;;;4994013;28;20522;-70
2024/02/08 02:35:32;;;;;;;1.40;1.27;;;10.30;98.00;;;;;;4993641;28;20488;-70
2024/02/08 02:38:01;;;;;;;1.40;1.20;;;10.30;98.00;;;;;;4993859;28;20816;-69
2024/02/08 02:40:31;;;;;;;1.30;1.20;;;10.30;98.00;;;;;;4993735;28;20454;-69
2024/02/08 02:42:59;;;;;;;1.73;1.40;;;10.30;98.00;;;;;;4993749;28;20475;-70
2024/02/08 02:45:28;;;;;;;1.77;1.40;;;10.30;98.00;;;;;;4992613;28;20506;-69
2024/02/08 02:48:01;;;;;;;1.53;1.20;;;10.30;98.00;;;;;;4992506;28;20488;-69
2024/02/08 02:50:29;;;;;;;1.20;1.10;;;10.30;98.00;;;;;;4993636;28;20829;-70
2024/02/08 02:52:57;;;;;;;1.50;1.40;;;10.30;98.00;;;;;;4993317;28;20456;-70
2024/02/08 02:55:24;;;;;;;1.67;1.30;;;10.30;98.00;;;;;;4993214;28;20485;-70
2024/02/08 02:57:57;;;;;;;1.20;1.20;;;10.40;98.00;;;;;;4993566;28;20528;-69
2024/02/08 03:00:25;;;;;;;1.67;1.30;;;10.40;98.00;;;;;;4993212;28;20567;-70
2024/02/08 03:02:57;;;;;;;1.60;1.23;;;10.40;98.00;;;;;;4993355;28;20540;-70
2024/02/08 03:05:25;;;;;;;1.50;1.20;;;10.40;98.00;;;;;;4993282;28;20449;-70
2024/02/08 03:07:53;;;;;;;1.67;1.20;;;10.40;98.00;;;;;;4993090;28;20459;-69
2024/02/08 03:10:22;;;;;;;1.70;1.40;;;10.40;98.00;;;;;;4991755;28;20455;-70
2024/02/08 03:12:50;;;;;;;1.20;1.20;;;10.40;98.00;;;;;;4993062;28;20470;-70
2024/02/08 03:15:19;;;;;;;2.27;1.50;;;10.40;98.00;;;;;;4992952;28;20495;-70
2024/02/08 03:17:47;;;;;;;2.47;1.20;;;10.40;98.00;;;;;;4991571;28;21070;-70
2024/02/08 03:20:23;;;;;;;1.40;1.20;;;10.40;98.00;;;;;;4991597;28;20459;-70
2024/02/08 03:22:50;;;;;;;1.20;1.20;;;10.50;98.00;;;;;;4992872;28;20508;-70
2024/02/08 03:25:17;;;;;;;1.20;1.17;;;10.50;98.00;;;;;;4992764;28;20466;-70
2024/02/08 03:27:45;;;;;;;1.30;1.10;;;10.50;98.00;;;;;;4991363;28;20445;-70
2024/02/08 03:30:19;;;;;;;1.87;1.40;;;10.50;98.00;;;;;;4992697;28;20445;-70
2024/02/08 03:32:50;;;;;;;1.20;1.20;;;10.50;98.00;;;;;;4992676;28;20959;-69
2024/02/08 03:35:24;;;;;;;1.40;1.20;;;10.40;98.00;;;;;;4992547;28;21099;-70
2024/02/08 03:37:55;;;;;;;2.17;1.20;;;10.40;98.00;;;;;;4991681;28;20845;-69
2024/02/08 03:40:25;;;;;;;1.80;1.30;;;10.40;98.00;;;;;;4991431;28;20927;-70
2024/02/08 03:42:53;;;;;;;1.30;1.10;;;10.40;98.00;;;;;;4992283;28;20452;-70
2024/02/08 03:45:23;;;;;;;1.70;1.20;;;10.50;98.00;;;;;;4992411;28;20474;-70
2024/02/08 03:47:52;;;;;;;1.20;1.20;;;10.50;98.00;;;;;;4992416;28;20942;-70
2024/02/08 03:50:19;;;;;;;1.80;1.47;;;10.50;98.00;;;;;;4992350;28;20954;-70
2024/02/08 03:52:46;;;;;;;2.70;1.50;;;10.40;98.00;;;;;;4992556;28;20459;-70
2024/02/08 03:55:16;;;;;;;1.43;1.27;;;10.40;98.00;;;;;;4992482;28;20532;-70
2024/02/08 03:57:48;;;;;;;1.57;1.30;;;10.40;98.00;;;;;;4992579;28;20504;-70
2024/02/08 04:00:27;;;;;;;1.70;1.40;;;10.40;98.00;;;;;;4992460;28;20468;-69
2024/02/08 04:02:57;;;;;;;1.70;1.37;;;10.50;98.00;;;;;;4992903;28;20456;-69
2024/02/08 04:05:36;;;;;;;1.30;1.20;;;10.50;98.00;;;;;;4992399;28;20453;-70
2024/02/08 04:08:09;;;;;;;1.33;1.27;;;10.50;98.00;;;;;;4992787;28;20453;-70
2024/02/08 04:54:30;;;;;;;1.57;1.30;;;10.30;98.00;;;;;;4968833;28;20552;-72
2024/02/08 04:56:59;;;;;;;2.53;1.10;;;10.30;98.00;;;;;;4991493;28;20449;-72
2024/02/08 04:59:26;;;;;;;1.27;1.20;;;10.40;98.00;;;;;;4991527;28;20809;-71
2024/02/08 05:01:54;;;;;;;2.50;1.20;;;10.40;98.00;;;;;;4991779;28;20454;-72
2024/02/08 05:04:21;;;;;;;1.30;1.30;;;10.20;98.00;;;;;;4991496;28;20477;-72
2024/02/08 05:06:50;;;;;;;2.53;1.20;;;10.20;98.00;;;;;;4991554;28;20460;-72
2024/02/08 05:09:19;;;;;;;2.23;1.10;;;10.20;98.00;;;;;;4994053;28;20463;-72
2024/02/08 05:11:48;;;;;;;1.30;1.10;;;10.20;98.00;;;;;;4994150;28;20451;-72
2024/02/08 05:14:19;;;;;;;1.10;1.10;;;10.20;98.00;;;;;;4994330;28;20464;-72
2024/02/08 05:16:46;;;;;;;2.07;1.20;;;10.20;98.00;;;;;;4995263;28;20539;-72
2024/02/08 05:19:14;;;;;;;1.30;1.30;;;10.10;98.00;;;;;;4995282;28;20511;-72
2024/02/08 05:21:41;;;;;;;1.73;1.30;;;10.00;98.00;;;;;;4993660;28;20482;-72
2024/02/08 05:24:12;;;;;;;1.60;1.20;;;10.10;98.00;;;;;;4993991;28;20491;-72
2024/02/08 05:26:41;;;;;;;1.50;1.20;;;10.00;98.00;;;;;;4995050;28;20581;-72
2024/02/08 05:29:08;;;;;;;1.20;1.10;;;10.00;98.00;;;;;;4995252;28;20479;-72
2024/02/08 05:31:39;;;;;;;1.70;1.20;;;10.10;98.00;;;;;;4995206;28;20452;-72
2024/02/08 05:34:07;;;;;;;1.27;1.20;;;10.20;98.00;;;;;;4995155;28;20509;-72
2024/02/08 05:36:39;;;;;;;1.60;1.20;;;10.20;98.00;;;;;;4994706;28;20514;-72
2024/02/08 05:39:06;;;;;;;1.60;1.20;;;10.20;98.00;;;;;;4993901;28;20456;-72
2024/02/08 05:41:36;;;;;;;3.17;1.13;;;10.20;98.00;;;;;;4995574;28;20973;-72
2024/02/08 05:44:05;;;;;;;1.30;1.10;;;10.20;98.00;;;;;;4994974;28;20465;-72
2024/02/08 05:46:38;;;;;;;1.20;1.10;;;10.10;98.00;;;;;;4995799;28;20556;-72
2024/02/08 05:49:11;;;;;;;1.20;1.10;;;10.10;98.00;;;;;;4994881;28;21009;-73
2024/02/08 05:51:46;;;;;;;1.40;1.20;;;10.10;98.00;;;;;;4994464;28;20838;-72
2024/02/08 05:54:16;;;;;;;1.77;1.30;;;10.00;98.00;;;;;;4994636;28;20448;-72
2024/02/08 05:56:46;;;;;;;1.30;1.10;;;9.90;98.00;;;;;;4994350;28;20493;-72
2024/02/08 05:59:17;;;;;;;1.60;1.30;;;9.90;98.00;;;;;;4994394;28;20455;-72
2024/02/08 06:01:50;;;;;;;2.50;1.10;;;9.90;98.00;;;;;;4994308;28;20487;-72
2024/02/08 06:04:22;;;;;;;1.30;1.10;;;10.00;98.00;;;;;;4994492;28;20452;-72
2024/02/08 06:06:53;;;;;;;1.37;1.20;;;9.90;98.00;;;;;;4994333;28;20458;-72
2024/02/08 06:12:23;;;;;;;1.20;1.10;;;9.90;98.00;;;;;;5150512;27;20538;-72
2024/02/08 06:14:57;;;;;;;1.50;1.10;;;9.90;98.00;;;;;;5129600;27;20458;-72
2024/02/08 06:17:31;;;;;;;1.97;1.30;;;9.90;98.00;;;;;;5129695;27;20505;-72
2024/02/08 06:20:00;;;;;;;1.93;1.20;;;10.00;98.00;;;;;;5129511;27;20870;-72
2024/02/08 06:22:29;;;;;;;1.30;1.20;;;9.90;98.00;;;;;;5129514;28;20453;-72
2024/02/08 06:25:08;;;;;;;1.40;1.20;;;9.90;98.00;;;;;;5129412;28;20948;-72
2024/02/08 06:27:37;;;;;;;2.37;1.30;;;9.90;98.00;;;;;;5129353;28;20555;-72
2024/02/08 06:30:09;;;;;;;1.43;1.10;;;10.00;98.00;;;;;;5129152;28;20509;-72
2024/02/08 06:32:43;;;;;;;1.50;1.10;;;10.00;98.00;;;;;;5111517;28;20455;-72
2024/02/08 06:35:19;;;;;;;5.90;1.30;;;10.10;98.00;;;;;;5129326;28;20503;-72
2024/02/08 06:37:56;;;;;;;1.40;1.30;;;10.10;98.00;;;;;;5127998;28;20451;-72
2024/02/08 06:40:24;;;;;;;1.70;1.40;;;10.00;98.00;;;;;;5129382;27;20445;-72
2024/02/08 06:46:09;;;;;;;1.20;1.20;;;10.00;98.00;;;;;;5129035;28;20515;-72
2024/02/08 06:48:48;;;;;;;1.50;1.50;;;10.00;98.00;;;;;;5128941;27;20536;-72
2024/02/08 07:38:08;;;;;;;1.80;1.40;;;10.20;98.00;;;;;;5114499;28;21058;-74
2024/02/08 07:40:36;;;;;;;1.87;1.30;;;10.20;98.00;;;;;;5114236;28;20451;-74
2024/02/08 07:43:20;;;;;;;4.03;1.40;;;10.20;98.00;;;;;;5113134;28;20444;-74
2024/02/08 07:45:48;;;;;;;1.57;1.30;;;10.30;98.00;;;;;;5112991;28;20511;-74
2024/02/08 07:48:37;;;;;;;13.47;1.50;;;10.30;98.00;;;;;;5114234;28;20459;-74
2024/02/08 07:51:05;;;;;;;1.30;1.20;;;10.30;98.00;;;;;;5114014;28;20479;-74
2024/02/08 07:53:44;;;;;;;2.30;1.47;;;10.30;98.00;;;;;;5114127;28;20763;-75
2024/02/08 07:56:29;;;;;;;1.70;1.50;;;10.30;98.00;;;;;;5114107;28;20811;-75
2024/02/08 07:59:03;;;;;;;1.50;1.40;;;10.30;98.00;;;;;;5113954;28;20498;-74
2024/02/08 08:01:32;;;;;;;1.40;1.23;;;10.30;98.00;;;;;;5113855;28;20504;-74
2024/02/08 08:04:09;;;;;;;1.47;1.37;;;10.40;98.00;;;;;;5113690;28;20562;-74
2024/02/08 08:06:46;;;;;;;1.17;1.07;;;10.40;98.00;;;;;;5113638;28;20457;-74
2024/02/08 08:09:21;;;;;;;1.37;1.33;;;10.40;98.00;;;;;;5113870;28;20461;-75
2024/02/08 08:11:48;;;;;;;1.50;1.20;;;10.40;98.00;;;;;;5113319;28;20474;-73
2024/02/08 08:17:16;;;;;;;1.37;1.30;;;10.50;98.00;;;;;;5113172;28;20832;-76
2024/02/08 08:20:04;;;;;;;2.03;1.30;;;10.50;98.00;;;;;;5113511;28;20456;-73
2024/02/08 08:30:53;;;;;;;1.80;1.30;;;10.50;98.00;;;;;;5113685;27;20556;-74
2024/02/08 08:33:58;;;;;;;2.67;1.70;;;10.50;98.00;;;;;;5113478;28;20443;-74
2024/02/08 08:36:28;;;;;;;1.40;1.40;;;10.50;98.00;;;;;;5113751;28;20440;-73
2024/02/08 08:39:29;;;;;;;1.77;1.30;;;10.50;98.00;;;;;;5114169;28;20504;-74
2024/02/08 08:41:47;;;;;;;1.70;1.40;;;10.60;98.00;;;;;;5113665;28;21158;-75
2024/02/08 08:44:18;;;;;;;1.43;1.27;;;10.60;98.00;;;;;;5113999;28;20460;-75
2024/02/08 08:46:45;;;;;;;1.20;1.20;;;10.60;98.00;;;;;;5113889;28;20497;-76
2024/02/08 08:49:14;;;;;;;1.30;1.20;;;10.70;98.00;;;;;;5114064;28;20850;-75
2024/02/08 08:51:58;;;;;;;1.50;1.23;;;10.70;98.00;;;;;;5113689;28;21098;-75
2024/02/08 08:54:29;;;;;;;1.67;1.30;;;10.70;98.00;;;;;;5113827;28;20449;-75
2024/02/08 08:56:57;;;;;;;3.47;1.20;;;10.70;98.00;;;;;;5112069;28;20445;-73
2024/02/08 08:59:26;;;;;;;1.33;1.30;;;10.80;98.00;;;;;;5113380;28;20447;-74
2024/02/08 09:01:53;;;;;;;1.97;1.30;;;10.80;98.00;;;;;;5113987;28;20443;-76
2024/02/08 09:04:32;;;;;;;1.43;1.30;;;10.80;98.00;;;;;;5113572;28;20493;-74
2024/02/08 09:07:10;;;;;;;1.40;1.20;;;10.70;98.00;;;;;;5113532;28;20443;-74
2024/02/08 09:12:28;;;;;;;1.53;1.30;;;10.70;98.00;;;;;;5113342;28;20473;-73
2024/02/08 09:14:59;;;;;;;1.27;1.10;;;10.80;98.00;;;;;;5113054;28;20993;-74
2024/02/08 09:17:40;;;;;;;1.20;1.20;;;10.80;98.00;;;;;;5113209;28;20511;-75
2024/02/08 09:20:19;;;;;;;1.30;1.20;;;10.90;98.00;;;;;;5113153;28;21089;-74
2024/02/08 09:22:50;;;;;;;1.53;1.20;;;11.00;98.00;;;;;;5112947;28;20459;-75
2024/02/08 09:25:19;;;;;;;1.30;1.30;;;11.00;98.00;;;;;;5112888;28;20473;-75
2024/02/08 09:27:53;;;;;;;1.30;1.30;;;11.00;98.00;;;;;;5112864;28;20451;-74
2024/02/08 09:30:37;;;;;;;1.20;1.10;;;11.10;98.00;;;;;;5112667;28;20494;-75
2024/02/08 09:33:13;;;;;;;1.40;1.23;;;11.20;98.00;;;;;;5112817;28;20457;-75
2024/02/08 09:35:42;;;;;;;2.30;1.40;;;11.10;98.00;;;;;;5111583;28;21106;-73
2024/02/08 09:38:18;;;;;;;1.23;1.13;;;11.10;98.00;;;;;;5112915;28;20859;-74
2024/02/08 09:40:51;;;;;;;1.20;1.17;;;11.10;98.00;;;;;;5112628;28;20477;-73
2024/02/08 09:43:18;;;;;;;1.20;1.13;;;11.10;98.00;;;;;;5111559;28;20460;-74
2024/02/08 09:45:46;;;;;;;1.40;1.20;;;11.10;98.00;;;;;;5111036;28;20446;-74
2024/02/08 09:48:25;;;;;;;2.07;1.23;;;11.20;98.00;;;;;;5112410;28;20454;-75
2024/02/08 09:50:59;;;;;;;1.30;1.20;;;11.30;98.00;;;;;;5111300;28;20794;-75
2024/02/08 09:53:35;;;;;;;1.23;1.20;;;11.30;98.00;;;;;;5112635;28;20504;-76
2024/02/08 09:56:15;;;;;;;1.63;1.20;;;11.40;98.00;;;;;;5112483;28;20450;-75
2024/02/08 09:58:55;;;;;;;1.30;1.20;;;11.40;98.00;;;;;;5112420;28;20954;-73
2024/02/08 10:01:30;;;;;;;1.20;1.10;;;11.50;98.00;;;;;;5112664;28;20452;-74
2024/02/08 10:04:05;;;;;;;1.27;1.17;;;11.50;98.00;;;;;;5112612;28;20479;-75
2024/02/08 10:06:45;;;;;;;1.40;1.20;;;11.50;98.00;;;;;;5112473;28;20458;-74
2024/02/08 10:12:06;;;;;;;2.37;1.17;;;11.60;98.00;;;;;;5112196;28;20484;-75
2024/02/08 10:14:34;;;;;;;1.40;1.20;;;11.70;98.00;;;;;;5111349;28;20506;-73
2024/02/08 10:17:15;;;;;;;1.50;1.27;;;11.60;98.00;;;;;;5112467;28;20454;-74
2024/02/08 10:22:43;;;;;;;1.67;1.20;;;11.60;98.00;;;;;;5111976;28;20447;-74
2024/02/08 10:28:02;;;;;;;1.10;1.10;;;11.70;98.00;;;;;;5112302;28;20494;-75
2024/02/08 10:30:29;;;;;;;1.20;1.20;;;11.70;98.00;;;;;;5112183;28;20452;-75
2024/02/08 10:32:56;;;;;;;1.30;1.20;;;11.80;98.00;;;;;;5112116;28;20479;-75
2024/02/08 10:35:26;;;;;;;1.30;1.20;;;11.80;98.00;;;;;;5112192;28;20464;-76
2024/02/08 10:38:07;;;;;;;1.30;1.10;;;11.80;98.00;;;;;;5112150;28;20459;-75
2024/02/08 10:40:36;;;;;;;1.40;1.20;;;11.80;98.00;;;;;;5112146;28;20907;-74
2024/02/08 10:43:16;;;;;;;1.80;1.30;;;11.80;98.00;;;;;;5112239;28;20456;-74
2024/02/08 10:45:49;;;;;;;1.50;1.20;;;11.80;98.00;;;;;;5111140;28;20463;-75
2024/02/08 10:48:18;;;;;;;1.50;1.20;;;11.80;98.00;;;;;;5112164;28;20450;-74
2024/02/08 10:50:49;;;;;;;1.93;1.30;;;11.80;98.00;;;;;;5112041;28;20453;-75
2024/02/08 10:53:43;;;;;;;1.27;1.20;;;11.80;98.00;;;;;;5111098;28;20859;-74
2024/02/08 10:56:16;;;;;;;3.83;1.17;;;11.80;98.00;;;;;;5111277;28;20440;-74
2024/02/08 10:58:55;;;;;;;1.20;1.20;;;11.90;98.00;;;;;;5114688;28;20505;-74
2024/02/08 11:01:32;;;;;;;1.60;1.30;;;11.90;98.00;;;;;;5115202;27;20519;-75
2024/02/08 11:04:07;;;;;;;1.83;1.30;;;12.00;98.00;;;;;;5115594;28;20540;-73
2024/02/08 11:06:43;;;;;;;1.30;1.20;;;11.90;98.00;;;;;;5115808;28;20541;-75
2024/02/08 11:09:18;;;;;;;1.80;1.20;;;11.90;98.00;;;;;;5115440;28;20461;-76
2024/02/08 11:11:59;;;;;;;1.37;1.30;;;11.80;98.00;;;;;;5115123;28;20507;-74
2024/02/08 11:14:30;;;;;;;2.57;1.20;;;11.80;98.00;;;;;;5115803;28;20487;-75
2024/02/08 11:17:03;;;;;;;1.50;1.20;;;11.70;98.00;;;;;;5097964;28;20453;-75
2024/02/08 11:19:39;;;;;;;1.20;1.20;;;11.70;98.00;;;;;;5115610;28;20467;-75
2024/02/08 11:22:39;;;;;;;2.23;1.20;;;11.60;98.00;;;;;;5115046;28;20505;-75
2024/02/08 11:25:23;;;;;;;1.37;1.20;;;11.60;98.00;;;;;;5115373;27;20464;-76
2024/02/08 11:27:52;;;;;;;1.20;1.00;;;11.70;98.00;;;;;;5115213;28;20447;-75
2024/02/08 11:30:32;;;;;;;1.50;1.27;;;11.80;98.00;;;;;;5115011;28;20448;-75
2024/02/08 11:33:02;;;;;;;1.10;1.10;;;11.80;98.00;;;;;;5115125;28;21017;-75
2024/02/08 11:35:31;;;;;;;1.30;1.20;;;11.90;98.00;;;;;;5114931;28;20449;-74
2024/02/08 11:38:12;;;;;;;1.50;1.30;;;11.80;98.00;;;;;;5115201;27;20474;-75
2024/02/08 11:40:41;;;;;;;1.60;1.40;;;11.80;98.00;;;;;;5114959;28;20455;-75
2024/02/08 11:43:23;;;;;;;1.30;1.20;;;11.90;98.00;;;;;;5114683;28;20975;-73
2024/02/08 11:45:53;;;;;;;2.23;1.27;;;12.00;98.00;;;;;;5114848;28;20854;-75
2024/02/08 11:48:31;;;;;;;1.60;1.30;;;12.00;98.00;;;;;;5114855;28;21007;-75
2024/02/08 11:51:00;;;;;;;1.37;1.20;;;12.00;98.00;;;;;;5114958;28;20800;-76
2024/02/08 11:53:34;;;;;;;1.37;1.10;;;12.10;98.00;;;;;;5114729;27;20489;-75
2024/02/08 11:56:07;;;;;;;3.83;1.20;;;12.10;98.00;;;;;;5114674;28;20456;-75
2024/02/08 11:58:40;;;;;;;1.30;1.10;;;12.10;98.00;;;;;;5114679;28;20452;-74
2024/02/08 12:01:07;;;;;;;1.50;1.20;;;12.10;98.00;;;;;;5113635;28;20507;-75
2024/02/08 12:03:41;;;;;;;1.83;1.57;;;12.10;98.00;;;;;;5114716;28;20457;-76
2024/02/08 12:06:08;;;;;;;1.83;1.40;;;12.10;98.00;;;;;;5114650;28;20455;-73
2024/02/08 12:08:37;;;;;;;1.37;1.20;;;12.20;98.00;;;;;;5114614;28;20447;-75
2024/02/08 12:11:04;;;;;;;1.83;1.30;;;12.20;98.00;;;;;;5114120;28;20955;-74
2024/02/08 12:13:39;;;;;;;1.73;1.10;;;12.30;98.00;;;;;;5114453;28;20897;-74
2024/02/08 12:16:07;;;;;;;1.40;1.20;;;12.30;98.00;;;;;;5114339;28;20596;-74
2024/02/08 12:18:35;;;;;;;1.20;1.10;;;12.40;98.00;;;;;;5113061;28;20459;-73
2024/02/08 12:21:07;;;;;;;1.30;1.30;;;12.40;98.00;;;;;;5114331;28;20492;-74
2024/02/08 12:23:35;;;;;;;1.40;1.30;;;12.40;98.00;;;;;;5114469;28;20476;-75
2024/02/08 12:26:06;;;;;;;1.30;1.20;;;12.30;98.00;;;;;;5114131;28;20962;-77
2024/02/08 12:28:38;;;;;;;1.90;1.33;;;12.40;98.00;;;;;;5114210;28;20472;-74
2024/02/08 12:31:17;;;;;;;2.13;1.40;;;12.40;98.00;;;;;;5114218;28;20472;-76
2024/02/08 12:33:50;;;;;;;3.43;1.50;;;12.40;98.00;;;;;;5112921;28;20517;-76
2024/02/08 12:36:19;;;;;;;1.83;1.40;;;12.40;98.00;;;;;;5114020;28;20455;-76
2024/02/08 12:38:50;;;;;;;1.40;1.20;;;12.50;98.00;;;;;;5096308;28;20452;-75
2024/02/08 12:41:21;;;;;;;3.00;1.57;;;12.50;98.00;;;;;;5113973;28;20460;-65
2024/02/08 12:43:51;;;;;;;1.93;1.30;;;12.60;98.00;;;;;;5096481;28;20448;-66
2024/02/08 12:46:20;;;;;;;1.40;1.40;;;12.80;98.00;;;;;;5113913;28;20455;-65
2024/02/08 12:48:48;;;;;;;2.40;1.50;;;12.90;98.00;;;;;;5113786;28;20461;-73
2024/02/08 12:51:19;;;;;;;3.50;1.30;;;12.90;98.00;;;;;;5112789;28;20448;-76
2024/02/08 12:53:46;;;;;;;5.03;1.53;;;12.90;98.00;;;;;;5112771;28;20486;-75
2024/02/08 12:56:13;;;;;;;2.67;1.50;;;12.90;98.00;;;;;;5113751;28;20451;-75
2024/02/08 12:58:40;;;;;;;2.90;1.60;;;12.80;98.00;;;;;;5113682;28;20449;-74
2024/02/08 13:01:14;;;;;;;3.20;1.70;;;12.90;98.00;;;;;;5113734;28;20458;-76
2024/02/08 13:03:43;;;;;;;3.60;1.50;;;12.90;98.00;;;;;;5113573;28;20538;-74
2024/02/08 13:06:12;;;;;;;3.47;1.70;;;12.90;98.00;;;;;;5113142;28;20463;-75
2024/02/08 13:08:44;;;;;;;3.77;1.53;;;12.90;98.00;;;;;;5113183;28;20486;-76
2024/02/08 13:11:12;;;;;;;5.40;1.57;;;13.00;98.00;;;;;;5113293;28;20504;-72
2024/02/08 13:13:41;;;;;;;3.30;1.53;;;13.10;98.00;;;;;;5113197;28;20480;-75
2024/02/08 13:16:09;;;;;;;2.40;1.40;;;13.10;98.00;;;;;;5111781;28;20448;-76
2024/02/08 13:18:38;;;;;;;4.53;1.70;;;13.10;98.00;;;;;;5112999;28;20648;-76
2024/02/08 13:21:11;;;;;;;4.60;1.67;;;13.10;98.00;;;;;;5112683;28;20877;-76
2024/02/08 13:23:41;;;;;;;8.97;1.83;;;13.10;98.00;;;;;;5111691;28;20460;-74
2024/02/08 13:26:10;;;;;;;4.50;1.70;;;13.20;98.00;;;;;;5113125;28;20444;-76
2024/02/08 13:28:37;;;;;;;5.63;1.77;;;13.20;98.00;;;;;;5112903;28;20451;-76
2024/02/08 13:31:05;;;;;;;3.07;1.90;;;13.20;98.00;;;;;;5109603;28;20970;-77
2024/02/08 13:33:36;;;;;;;2.13;1.70;;;13.20;98.00;;;;;;5111790;28;20580;-75
2024/02/08 13:36:08;;;;;;;7.00;1.90;;;13.30;98.00;;;;;;5112692;28;20463;-77
2024/02/08 13:38:41;;;;;;;8.93;2.10;;;13.30;98.00;;;;;;5111269;28;20446;-76
2024/02/08 13:41:09;;;;;;;1.93;1.50;;;13.30;98.00;;;;;;5112781;28;20474;-75
2024/02/08 13:43:45;;;;;;;10.10;2.10;;;13.40;98.00;;;;;;5112731;28;20475;-75
2024/02/08 13:46:13;;;;;;;13.60;2.10;;;13.40;98.00;;;;;;5112742;28;20451;-76
2024/02/08 13:48:40;;;;;;;9.00;1.83;;;13.40;98.00;;;;;;5112592;28;20457;-77
2024/02/08 13:51:07;;;;;;;12.63;2.53;;;13.40;98.00;;;;;;5112531;28;20448;-75
2024/02/08 13:53:37;;;;;;;8.33;2.17;;;13.40;98.00;;;;;;5111294;28;20507;-76
2024/02/08 13:56:11;;;;;;;5.10;2.30;;;13.40;98.00;;;;;;5112568;28;20494;-75
2024/02/08 13:58:38;;;;;;;6.97;2.57;;;13.50;98.00;;;;;;5112457;28;20461;-76
2024/02/08 14:01:06;;;;;;;3.73;2.10;;;13.50;98.00;;;;;;5112605;28;20452;-77
2024/02/08 14:03:34;;;;;;;5.90;2.10;;;13.60;98.00;;;;;;5112439;28;20475;-76
2024/02/08 14:06:02;;;;;;;6.50;2.30;;;13.60;98.00;;;;;;5112534;28;20938;-76
2024/02/08 14:08:29;;;;;;;6.43;2.30;;;13.60;98.00;;;;;;5112304;28;20506;-75
2024/02/08 14:10:59;;;;;;;7.30;2.53;;;13.50;98.00;;;;;;5112232;28;20551;-76
2024/02/08 14:13:34;;;;;;;8.80;2.30;;;13.40;98.00;;;;;;5111078;28;20484;-76
2024/02/08 14:16:13;;;;;;;7.37;2.70;;;13.40;98.00;;;;;;5112429;28;20452;-76
2024/02/08 14:18:48;;;;;;;12.10;2.60;;;13.40;98.00;;;;;;5112406;28;20455;-76
2024/02/08 14:21:20;;;;;;;5.90;2.53;;;13.40;98.00;;;;;;5112684;28;20548;-75
2024/02/08 14:23:50;;;;;;;17.53;2.50;;;13.40;98.00;;;;;;5112469;28;20453;-77
2024/02/08 14:26:33;;;;;;;7.90;2.47;;;13.40;98.00;;;;;;5112468;28;20932;-76
2024/02/08 14:29:04;;;;;;;15.37;3.00;;;13.40;98.00;;;;;;5112594;28;20461;-75
2024/02/08 14:31:35;;;;;;;7.90;2.43;;;13.40;98.00;;;;;;5111078;28;20460;-75
2024/02/08 14:34:06;;;;;;;10.50;2.60;;;13.30;98.00;;;;;;5116623;28;20579;-75
2024/02/08 14:36:34;;;;;;;7.10;2.50;;;13.40;98.00;;;;;;5116422;28;20954;-76
2024/02/08 14:39:01;;;;;;;8.73;2.40;;;13.40;98.00;;;;;;5116689;28;20847;-76
2024/02/08 14:41:33;;;;;;;13.47;2.77;;;13.40;98.00;;;;;;5116232;28;20446;-76
2024/02/08 14:44:09;;;;;;;12.93;2.70;;;13.40;98.00;;;;;;5116582;28;20476;-75
2024/02/08 14:46:39;;;;;;;16.23;2.37;;;13.40;98.00;;;;;;5116237;27;20965;-76
2024/02/08 14:49:17;;;;;;;4.73;2.20;;;13.40;98.00;;;;;;5116262;27;20453;-76
2024/02/08 14:51:47;;;;;;;11.90;2.90;;;13.40;98.00;;;;;;5116111;28;20452;-75
2024/02/08 14:54:18;;;;;;;11.70;2.67;;;13.40;98.00;;;;;;5115891;28;20491;-75
2024/02/08 14:57:03;;;;;;;9.40;2.80;;;13.30;98.00;;;;;;5116021;28;20957;-75
2024/02/08 14:59:41;;;;;;;10.40;2.60;;;13.30;98.00;;;;;;5116757;28;20464;-75
2024/02/08 15:02:18;;;;;;;11.63;2.40;;;13.30;98.00;;;;;;5115873;28;20458;-75
2024/02/08 15:04:52;;;;;;;10.00;2.90;;;13.30;98.00;;;;;;5115636;28;20462;-77
2024/02/08 15:10:07;;;;;;;11.37;2.87;;;13.30;98.00;;;;;;5115793;28;20447;-75
2024/02/08 15:12:41;;;;;;;15.40;2.60;;;13.30;98.00;;;;;;5115334;28;20494;-75